Terminal Aerodrome Forecast
Issued by NWS

Home | Current Version | Previous Version | Text Only | Print | Product List | Glossary Off
Versions: 1 2 3 4 5 6 7 8 9 10 11 12 13

085
FTUS43 KGRB 181133
TAFMTW
TAF
KMTW 181133Z 1812/1912 27009KT P6SM SKC WS014/31035KT
     FM181600 28008KT P6SM FEW250
     FM190900 29004KT 6SM BR SCT150=

USA.gov is the U.S. government's official web portal to all federal, state and local government web resources and services.